createdAt,value
2023-05-14T00:00:53.530Z,49.49
2023-05-14T00:03:20.908Z,48.94
2023-05-14T00:05:48.754Z,49.47
2023-05-14T00:08:15.930Z,49.68
2023-05-14T00:10:43.108Z,49.71
2023-05-14T00:13:10.282Z,50.13
2023-05-14T00:15:38.821Z,49.74
2023-05-14T00:18:06.029Z,49.29
2023-05-14T00:20:33.468Z,49.65
2023-05-14T00:23:00.600Z,49.91
2023-05-14T00:25:28.313Z,49.04
2023-05-14T00:27:55.468Z,49.21
2023-05-14T00:30:22.974Z,49.61
2023-05-14T00:32:51.838Z,49.52
2023-05-14T00:35:19.087Z,49.20
2023-05-14T00:37:46.208Z,49.45
2023-05-14T00:40:13.626Z,49.56
2023-05-14T00:42:40.713Z,48.87
2023-05-14T00:45:08.829Z,49.55
2023-05-14T00:47:37.205Z,48.00
2023-05-14T00:50:07.717Z,48.19
2023-05-14T00:52:34.987Z,48.68
2023-05-14T00:55:06.178Z,48.67
2023-05-14T00:57:33.775Z,48.29
2023-05-14T01:00:01.541Z,49.16
2023-05-14T01:02:28.761Z,48.36
2023-05-14T01:04:56.946Z,48.04
2023-05-14T01:07:36.106Z,48.63
2023-05-14T01:10:11.921Z,48.77
2023-05-14T01:12:48.085Z,48.58
2023-05-14T01:15:21.122Z,49.16
2023-05-14T01:17:54.008Z,48.38
2023-05-14T01:20:22.412Z,48.69
2023-05-14T01:22:51.142Z,57.08
2023-05-14T01:25:18.641Z,53.52
2023-05-14T01:27:53.326Z,51.42
2023-05-14T01:30:28.566Z,51.28
2023-05-14T01:33:00.722Z,50.48
2023-05-14T01:35:29.766Z,49.65
2023-05-14T01:38:02.095Z,49.68
2023-05-14T01:40:33.183Z,48.88
2023-05-14T01:43:01.127Z,48.56
2023-05-14T01:45:28.319Z,49.38
2023-05-14T01:47:55.434Z,48.77
2023-05-14T01:50:22.974Z,48.18
2023-05-14T01:52:50.262Z,47.47
2023-05-14T01:55:19.047Z,47.88
2023-05-14T01:57:46.216Z,47.12
2023-05-14T02:00:15.097Z,47.29
2023-05-14T02:02:42.496Z,47.39
2023-05-14T02:05:11.361Z,47.10
2023-05-14T02:07:38.533Z,46.80
2023-05-14T02:10:07.416Z,47.02
2023-05-14T02:12:36.333Z,47.07
2023-05-14T02:15:04.259Z,46.19
2023-05-14T02:17:31.655Z,46.13
2023-05-14T02:19:58.959Z,45.62
2023-05-14T02:22:26.126Z,45.77
2023-05-14T02:24:53.262Z,46.01
2023-05-14T02:27:20.384Z,45.99
2023-05-14T02:29:49.034Z,45.44
2023-05-14T02:32:16.191Z,45.23
2023-05-14T02:34:43.393Z,43.92
2023-05-14T02:37:10.523Z,45.13
2023-05-14T02:39:37.623Z,44.93
2023-05-14T02:42:05.369Z,44.14
2023-05-14T02:44:32.496Z,44.48
2023-05-14T02:47:01.205Z,44.76
2023-05-14T02:49:28.488Z,45.08
2023-05-14T02:51:55.603Z,44.93
2023-05-14T02:54:22.769Z,44.69
2023-05-14T02:56:49.982Z,45.06
2023-05-14T02:59:17.105Z,44.23
2023-05-14T03:01:44.698Z,45.78
2023-05-14T03:04:13.830Z,44.82
2023-05-14T03:06:40.973Z,44.72
2023-05-14T03:09:08.115Z,44.48
2023-05-14T03:11:35.657Z,44.40
2023-05-14T03:14:02.742Z,45.32
2023-05-14T03:16:29.893Z,44.81
2023-05-14T03:18:57.157Z,45.12
2023-05-14T03:21:25.925Z,45.09
2023-05-14T03:23:53.368Z,45.05
2023-05-14T03:26:20.559Z,44.90
2023-05-14T03:28:47.630Z,44.91
2023-05-14T03:31:14.812Z,44.54
2023-05-14T03:33:42.294Z,43.90
2023-05-14T03:36:09.773Z,45.29
2023-05-14T03:38:38.470Z,44.72
2023-05-14T03:41:05.503Z,44.82
2023-05-14T03:43:32.557Z,45.23
2023-05-14T03:45:59.626Z,45.11
2023-05-14T03:48:26.986Z,45.40
2023-05-14T03:50:54.244Z,45.57
2023-05-14T03:53:21.334Z,46.12
2023-05-14T03:55:49.870Z,45.85
2023-05-14T03:58:17.028Z,45.23
2023-05-14T04:00:44.389Z,44.96
2023-05-14T04:03:11.656Z,44.87
2023-05-14T04:05:39.033Z,44.80
2023-05-14T04:08:06.400Z,44.77
2023-05-14T04:10:33.724Z,45.14
2023-05-14T04:13:02.264Z,44.76
2023-05-14T04:15:29.393Z,45.02
2023-05-14T04:17:56.517Z,45.83
2023-05-14T04:20:23.824Z,45.38
2023-05-14T04:22:51.082Z,45.55
2023-05-14T04:25:18.559Z,45.37
2023-05-14T04:27:45.807Z,45.24
2023-05-14T04:30:14.997Z,45.13
2023-05-14T04:32:42.092Z,45.04
2023-05-14T04:35:09.784Z,45.17
2023-05-14T04:37:36.965Z,45.21
2023-05-14T04:40:05.094Z,44.81
2023-05-14T04:42:32.121Z,44.48
2023-05-14T04:44:59.366Z,44.61
2023-05-14T04:47:28.118Z,44.45
2023-05-14T04:49:55.199Z,44.15
2023-05-14T04:52:22.298Z,43.91
2023-05-14T04:54:49.435Z,44.15
2023-05-14T04:57:17.039Z,43.87
2023-05-14T04:59:44.141Z,43.98
2023-05-14T05:02:11.463Z,43.86
2023-05-14T05:04:40.067Z,43.56
2023-05-14T05:07:07.384Z,42.19
2023-05-14T05:09:34.572Z,43.31
2023-05-14T05:12:01.846Z,43.42
2023-05-14T05:14:28.966Z,43.04
2023-05-14T05:16:56.142Z,43.15
2023-05-14T05:19:35.917Z,42.84
2023-05-14T05:22:11.578Z,42.63
2023-05-14T05:24:38.742Z,42.69
2023-05-14T05:27:06.253Z,42.85
2023-05-14T05:29:33.426Z,42.67
2023-05-14T05:32:00.797Z,42.63
2023-05-14T05:34:28.215Z,42.43
2023-05-14T05:36:55.362Z,42.29
2023-05-14T05:39:24.011Z,41.89
2023-05-14T05:41:51.549Z,41.67
2023-05-14T05:44:18.723Z,41.69
2023-05-14T05:46:45.883Z,41.73
2023-05-14T05:49:13.008Z,41.62
2023-05-14T05:51:40.106Z,41.83
2023-05-14T05:54:07.182Z,41.52
2023-05-14T05:56:35.725Z,41.08
2023-05-14T05:59:02.783Z,41.98
2023-05-14T06:01:29.924Z,41.28
2023-05-14T06:03:57.467Z,41.45
2023-05-14T06:06:24.686Z,41.74
2023-05-14T06:08:51.927Z,41.95
2023-05-14T06:11:18.989Z,42.04
2023-05-14T06:13:47.521Z,42.04
2023-05-14T06:16:14.616Z,42.03
2023-05-14T06:18:41.867Z,41.54
2023-05-14T06:21:09.026Z,41.39
2023-05-14T06:23:36.346Z,41.49
2023-05-14T06:26:03.619Z,41.80
2023-05-14T06:28:30.796Z,41.53
2023-05-14T06:30:59.445Z,41.84
2023-05-14T06:33:26.585Z,41.57
2023-05-14T06:35:53.724Z,41.63
2023-05-14T06:38:20.882Z,41.33
2023-05-14T06:40:48.046Z,41.39
2023-05-14T06:43:15.203Z,40.59
2023-05-14T06:45:42.304Z,41.39
2023-05-14T06:48:10.923Z,41.59
2023-05-14T06:50:38.164Z,40.78
2023-05-14T06:53:05.345Z,41.09
2023-05-14T06:55:32.554Z,40.34
2023-05-14T06:57:59.642Z,40.17
2023-05-14T07:00:27.087Z,39.74
2023-05-14T07:02:54.472Z,40.25
2023-05-14T07:05:23.215Z,39.78
2023-05-14T07:07:50.322Z,39.77
2023-05-14T07:10:17.402Z,39.50
2023-05-14T07:12:44.599Z,39.54
2023-05-14T07:15:12.099Z,39.72
2023-05-14T07:17:39.236Z,39.80
2023-05-14T07:20:07.868Z,39.81
2023-05-14T07:22:36.348Z,40.11
2023-05-14T07:25:03.602Z,40.41
2023-05-14T07:27:30.725Z,40.23
2023-05-14T07:29:57.844Z,40.48
2023-05-14T07:32:25.134Z,40.49
2023-05-14T07:34:52.434Z,40.39
2023-05-14T07:37:20.285Z,40.84
2023-05-14T07:39:50.747Z,40.70
2023-05-14T07:42:31.897Z,40.99
2023-05-14T07:45:02.059Z,40.40
2023-05-14T07:47:29.747Z,40.82
2023-05-14T07:49:57.460Z,40.15
2023-05-14T07:52:25.112Z,40.98
2023-05-14T07:54:53.875Z,39.98
2023-05-14T07:57:21.123Z,40.63
2023-05-14T07:59:49.872Z,40.63
2023-05-14T08:02:17.544Z,40.07
2023-05-14T08:04:45.540Z,38.11
2023-05-14T08:07:12.588Z,39.53
2023-05-14T08:09:39.741Z,39.10
2023-05-14T08:12:08.914Z,38.51
2023-05-14T08:14:36.166Z,38.20
2023-05-14T08:17:03.792Z,38.86
2023-05-14T08:19:31.206Z,39.42
2023-05-14T08:21:58.318Z,37.80
2023-05-14T08:24:25.594Z,38.48
2023-05-14T08:26:52.765Z,38.59
2023-05-14T08:29:21.326Z,36.72
2023-05-14T08:31:49.585Z,37.17
2023-05-14T08:34:16.978Z,38.20
2023-05-14T08:36:44.068Z,37.58
2023-05-14T08:39:11.455Z,37.33
2023-05-14T08:41:40.525Z,37.33
2023-05-14T08:44:12.628Z,36.85
2023-05-14T08:46:42.130Z,36.18
2023-05-14T08:49:29.212Z,37.27
2023-05-14T08:51:56.685Z,35.92
2023-05-14T08:54:24.045Z,36.99
2023-05-14T08:56:52.337Z,34.55
2023-05-14T08:59:19.854Z,34.43
2023-05-14T09:01:51.850Z,35.27
2023-05-14T09:04:21.661Z,32.45
2023-05-14T09:06:50.444Z,33.79
2023-05-14T09:09:17.767Z,35.69
2023-05-14T09:11:47.375Z,35.26
2023-05-14T09:14:14.468Z,34.26
2023-05-14T09:16:45.000Z,33.74
2023-05-14T09:19:15.086Z,34.61
2023-05-14T09:21:45.325Z,34.67
2023-05-14T09:24:19.924Z,34.09
2023-05-14T09:26:51.368Z,33.65
2023-05-14T09:29:18.847Z,34.47
2023-05-14T09:31:46.140Z,34.79
2023-05-14T09:34:24.728Z,34.85
2023-05-14T09:36:57.133Z,34.08
2023-05-14T09:39:25.291Z,34.67
2023-05-14T09:41:53.042Z,34.39
2023-05-14T09:44:20.872Z,34.20
2023-05-14T09:46:48.858Z,35.27
2023-05-14T09:49:17.842Z,35.28
2023-05-14T09:51:45.053Z,34.73
2023-05-14T09:54:12.312Z,35.27
2023-05-14T09:56:39.648Z,36.06
2023-05-14T09:59:06.799Z,36.90
2023-05-14T10:01:34.562Z,37.59
2023-05-14T10:04:03.583Z,37.16
2023-05-14T10:06:36.952Z,37.73
2023-05-14T10:09:07.464Z,38.23
2023-05-14T10:11:38.432Z,38.19
2023-05-14T10:14:11.943Z,38.71
2023-05-14T10:16:45.871Z,36.44
2023-05-14T10:19:15.382Z,37.84
2023-05-14T10:21:48.359Z,38.15
2023-05-14T10:24:17.623Z,38.07
2023-05-14T10:26:45.902Z,37.88
2023-05-14T10:29:13.460Z,38.27
2023-05-14T10:31:49.331Z,37.83
2023-05-14T10:34:33.953Z,38.26
2023-05-14T10:37:04.415Z,38.84
2023-05-14T10:39:41.785Z,38.89
2023-05-14T10:42:11.465Z,37.32
2023-05-14T10:44:45.362Z,39.53
2023-05-14T10:47:12.550Z,39.80
2023-05-14T10:49:43.603Z,39.54
2023-05-14T10:52:12.814Z,39.23
2023-05-14T10:54:39.991Z,39.55
2023-05-14T10:57:11.881Z,39.59
2023-05-14T10:59:42.546Z,39.11
2023-05-14T11:02:21.559Z,35.96
2023-05-14T11:05:07.365Z,37.11
2023-05-14T11:07:37.751Z,39.36
2023-05-14T11:10:07.161Z,37.43
2023-05-14T11:12:35.675Z,38.37
2023-05-14T11:15:05.823Z,35.90
2023-05-14T11:17:35.227Z,37.07
2023-05-14T11:20:03.607Z,37.76
2023-05-14T11:22:30.687Z,36.39
2023-05-14T11:24:59.305Z,36.66
2023-05-14T11:27:26.604Z,37.09
2023-05-14T11:29:53.671Z,37.04
2023-05-14T11:32:20.894Z,36.33
2023-05-14T11:34:48.048Z,36.51
2023-05-14T11:37:16.889Z,36.50
2023-05-14T11:39:49.066Z,37.92
2023-05-14T11:42:18.888Z,37.04
2023-05-14T11:44:47.870Z,37.63
2023-05-14T11:47:15.911Z,37.75
2023-05-14T11:50:00.316Z,36.48
2023-05-14T11:52:41.375Z,34.65
2023-05-14T11:55:11.926Z,36.42
2023-05-14T11:57:41.034Z,35.42
2023-05-14T12:00:10.411Z,35.56
2023-05-14T12:02:38.091Z,36.73
2023-05-14T12:05:06.683Z,34.71
2023-05-14T12:07:33.962Z,33.16
2023-05-14T12:10:04.819Z,33.82
2023-05-14T12:12:36.358Z,33.93
2023-05-14T12:15:11.764Z,35.29
2023-05-14T12:17:39.258Z,33.01
2023-05-14T12:20:09.852Z,31.17
2023-05-14T12:22:37.357Z,31.39
2023-05-14T12:25:05.268Z,32.46
2023-05-14T12:27:32.592Z,32.81
2023-05-14T12:30:13.094Z,34.43
2023-05-14T12:32:49.135Z,34.05
2023-05-14T12:35:16.625Z,33.90
2023-05-14T12:37:43.891Z,34.14
2023-05-14T12:40:11.872Z,35.83
2023-05-14T12:42:38.964Z,35.94
2023-05-14T12:45:07.722Z,36.08
2023-05-14T12:47:35.516Z,35.11
2023-05-14T12:50:04.896Z,35.80
2023-05-14T12:55:02.211Z,35.28
2023-05-14T12:57:29.383Z,35.66
2023-05-14T12:59:57.821Z,34.62
2023-05-14T13:02:24.901Z,34.94
2023-05-14T13:04:52.088Z,36.42
2023-05-14T13:07:20.867Z,35.68
2023-05-14T13:09:49.044Z,34.93
2023-05-14T13:12:16.208Z,34.42
2023-05-14T13:14:43.383Z,33.21
2023-05-14T13:17:10.575Z,33.08
2023-05-14T13:19:37.725Z,34.65
2023-05-14T13:22:05.269Z,32.25
2023-05-14T13:24:34.397Z,30.54
2023-05-14T13:27:01.905Z,29.40
2023-05-14T13:29:29.041Z,30.71
2023-05-14T13:31:56.176Z,30.24
2023-05-14T13:34:23.494Z,29.57
2023-05-14T13:36:50.805Z,31.17
2023-05-14T13:39:18.003Z,31.89
2023-05-14T13:41:46.611Z,30.91
2023-05-14T13:44:13.804Z,33.10
2023-05-14T13:46:41.122Z,30.77
2023-05-14T13:49:08.383Z,31.95
2023-05-14T13:51:35.444Z,31.55
2023-05-14T13:54:04.396Z,30.40
2023-05-14T13:56:31.562Z,30.86
2023-05-14T13:59:00.190Z,32.97
2023-05-14T14:01:27.633Z,33.35
2023-05-14T14:03:54.968Z,34.75
2023-05-14T14:06:22.125Z,35.28
2023-05-14T14:08:49.422Z,34.01
2023-05-14T14:11:16.485Z,33.34
2023-05-14T14:13:45.856Z,34.70
2023-05-14T14:16:15.398Z,34.35
2023-05-14T14:18:42.675Z,35.04
2023-05-14T14:21:10.302Z,36.14
2023-05-14T14:23:37.460Z,35.35
2023-05-14T14:26:04.770Z,36.22
2023-05-14T14:28:32.873Z,36.15
2023-05-14T14:31:00.164Z,35.85
2023-05-14T14:33:28.917Z,35.78
2023-05-14T14:35:55.985Z,32.15
2023-05-14T14:38:23.229Z,34.04
2023-05-14T14:40:50.704Z,38.66
2023-05-14T14:43:17.923Z,38.26
2023-05-14T14:45:46.823Z,38.15
2023-05-14T14:48:26.449Z,35.81
2023-05-14T14:50:55.564Z,33.79
2023-05-14T14:53:23.390Z,32.90
2023-05-14T14:55:51.348Z,32.86
2023-05-14T14:58:20.343Z,32.25
2023-05-14T15:00:48.333Z,29.99
2023-05-14T15:03:16.082Z,31.66
2023-05-14T15:05:43.366Z,31.76
2023-05-14T15:08:12.228Z,32.34
2023-05-14T15:10:39.568Z,31.44
2023-05-14T15:13:07.187Z,30.24
2023-05-14T15:15:35.668Z,28.72
2023-05-14T15:18:03.831Z,29.40
2023-05-14T15:20:31.051Z,28.91
2023-05-14T15:22:58.375Z,32.09
2023-05-14T15:25:27.837Z,29.76
2023-05-14T15:27:55.232Z,29.64
2023-05-14T15:30:22.385Z,30.28
2023-05-14T15:32:50.164Z,30.14
2023-05-14T15:35:17.331Z,30.73
2023-05-14T15:37:45.397Z,30.47
2023-05-14T15:40:13.145Z,31.57
2023-05-14T15:42:43.232Z,30.08
2023-05-14T15:45:12.465Z,31.76
2023-05-14T15:47:40.544Z,33.03
2023-05-14T15:50:08.809Z,33.04
2023-05-14T15:52:36.263Z,33.16
2023-05-14T15:55:05.346Z,31.72
2023-05-14T15:57:32.527Z,33.80
2023-05-14T16:00:01.349Z,36.05
2023-05-14T16:02:28.567Z,36.56
2023-05-14T16:04:55.728Z,38.20
2023-05-14T16:07:23.083Z,40.12
2023-05-14T16:09:50.326Z,41.17
2023-05-14T16:12:17.524Z,40.28
2023-05-14T16:14:44.605Z,40.85
2023-05-14T16:17:13.163Z,40.28
2023-05-14T16:19:40.364Z,39.50
2023-05-14T16:22:07.526Z,40.21
2023-05-14T16:24:34.704Z,39.54
2023-05-14T16:27:01.922Z,39.56
2023-05-14T16:29:29.136Z,38.31
2023-05-14T16:31:56.373Z,39.41
2023-05-14T16:34:25.156Z,40.22
2023-05-14T16:36:52.443Z,41.18
2023-05-14T16:39:19.828Z,43.38
2023-05-14T16:41:47.096Z,39.79
2023-05-14T16:44:14.386Z,37.87
2023-05-14T16:46:42.901Z,37.79
2023-05-14T16:49:10.238Z,37.29
2023-05-14T16:51:39.054Z,37.40
2023-05-14T16:54:06.304Z,37.64
2023-05-14T16:56:33.739Z,38.37
2023-05-14T16:59:00.835Z,39.08
2023-05-14T17:01:28.463Z,38.67
2023-05-14T17:03:56.081Z,38.58
2023-05-14T17:06:23.271Z,38.23
2023-05-14T17:08:52.033Z,38.00
2023-05-14T17:11:19.199Z,38.06
2023-05-14T17:13:46.370Z,37.54
2023-05-14T17:16:13.636Z,37.65
2023-05-14T17:18:40.900Z,36.95
2023-05-14T17:21:08.109Z,37.26
2023-05-14T17:23:35.190Z,37.80
2023-05-14T17:26:03.906Z,37.84
2023-05-14T17:28:31.250Z,38.48
2023-05-14T17:30:58.356Z,36.43
2023-05-14T17:33:25.705Z,37.68
2023-05-14T17:35:52.965Z,37.20
2023-05-14T17:38:20.267Z,37.10
2023-05-14T17:40:47.348Z,37.05
2023-05-14T17:43:16.078Z,37.64
2023-05-14T17:45:54.003Z,37.23
2023-05-14T17:48:22.352Z,37.46
2023-05-14T17:50:49.619Z,37.33
2023-05-14T17:53:16.778Z,37.62
2023-05-14T17:55:44.316Z,37.98
2023-05-14T17:58:12.000Z,37.96
2023-05-14T18:00:40.845Z,38.42
2023-05-14T18:03:08.467Z,38.97
2023-05-14T18:05:36.008Z,38.30
2023-05-14T18:08:03.295Z,38.36
2023-05-14T18:10:30.513Z,37.90
2023-05-14T18:12:57.755Z,37.59
2023-05-14T18:15:25.120Z,36.82
2023-05-14T18:17:54.774Z,37.59
2023-05-14T18:20:21.968Z,37.32
2023-05-14T18:22:49.453Z,36.84
2023-05-14T18:25:16.815Z,36.91
2023-05-14T18:27:44.264Z,37.45
2023-05-14T18:30:13.430Z,36.92
2023-05-14T18:32:41.425Z,36.81
2023-05-14T18:35:10.630Z,36.60
2023-05-14T18:37:38.553Z,36.94
2023-05-14T18:40:07.369Z,37.61
2023-05-14T18:42:35.138Z,37.85
2023-05-14T18:45:02.313Z,38.57
2023-05-14T18:47:30.470Z,38.44
2023-05-14T18:49:58.135Z,38.14
2023-05-14T18:52:26.767Z,39.53
2023-05-14T18:54:54.533Z,39.75
2023-05-14T18:57:22.283Z,39.64
2023-05-14T18:59:49.806Z,40.69
2023-05-14T19:02:17.495Z,41.49
2023-05-14T19:04:52.374Z,41.34
2023-05-14T19:07:21.045Z,42.38
2023-05-14T19:09:49.907Z,43.86
2023-05-14T19:12:17.075Z,43.82
2023-05-14T19:14:44.291Z,45.06
2023-05-14T19:17:11.831Z,45.69
2023-05-14T19:19:39.051Z,45.28
2023-05-14T19:22:06.327Z,45.89
2023-05-14T19:24:33.558Z,46.02
2023-05-14T19:27:02.123Z,45.97
2023-05-14T19:29:29.403Z,45.95
2023-05-14T19:31:56.579Z,45.94
2023-05-14T19:34:23.972Z,45.97
2023-05-14T19:36:51.216Z,46.65
2023-05-14T19:39:18.403Z,46.01
2023-05-14T19:41:45.568Z,46.58
2023-05-14T19:44:14.239Z,47.38
2023-05-14T19:46:41.447Z,48.00
2023-05-14T19:49:08.687Z,46.68
2023-05-14T19:51:35.984Z,46.16
2023-05-14T19:54:03.505Z,46.18
2023-05-14T19:56:31.066Z,47.51
2023-05-14T19:58:58.508Z,46.61
2023-05-14T20:01:27.547Z,46.82
2023-05-14T20:03:54.718Z,46.03
2023-05-14T20:06:21.867Z,45.27
2023-05-14T20:08:49.007Z,46.63
2023-05-14T20:11:16.108Z,45.90
2023-05-14T20:13:43.273Z,46.24
2023-05-14T20:16:10.617Z,45.96
2023-05-14T20:18:39.233Z,46.29
2023-05-14T20:21:06.451Z,45.96
2023-05-14T20:23:33.605Z,46.78
2023-05-14T20:26:00.762Z,46.84
2023-05-14T20:28:27.870Z,46.62
2023-05-14T20:30:55.056Z,47.36
2023-05-14T20:33:22.307Z,47.83
2023-05-14T20:35:51.070Z,48.05
2023-05-14T20:38:18.354Z,49.09
2023-05-14T20:40:45.532Z,48.14
2023-05-14T20:43:12.787Z,47.61
2023-05-14T20:45:39.987Z,46.71
2023-05-14T20:48:07.657Z,47.26
2023-05-14T20:50:35.588Z,47.85
2023-05-14T20:53:04.672Z,48.41
2023-05-14T20:55:31.911Z,47.53
2023-05-14T20:57:59.060Z,45.64
2023-05-14T21:00:26.424Z,45.78
2023-05-14T21:02:53.705Z,45.13
2023-05-14T21:05:21.207Z,44.68
2023-05-14T21:07:48.388Z,45.78
2023-05-14T21:10:17.019Z,46.81
2023-05-14T21:12:44.897Z,48.25
2023-05-14T21:15:12.650Z,48.32
2023-05-14T21:17:39.904Z,48.21
2023-05-14T21:20:08.707Z,48.98
2023-05-14T21:22:35.915Z,47.70
2023-05-14T21:25:03.227Z,47.82
2023-05-14T21:27:31.933Z,48.13
2023-05-14T21:29:59.186Z,48.94
2023-05-14T21:32:26.308Z,48.78
2023-05-14T21:34:53.466Z,49.35
2023-05-14T21:37:21.489Z,48.53
2023-05-14T21:39:48.582Z,48.23
2023-05-14T21:42:15.763Z,48.67
2023-05-14T21:44:44.410Z,49.06
2023-05-14T21:47:11.661Z,48.72
2023-05-14T21:49:38.818Z,49.03
2023-05-14T21:52:06.403Z,48.53
2023-05-14T21:54:33.764Z,47.82
2023-05-14T21:57:01.102Z,48.42
2023-05-14T21:59:28.592Z,48.52
2023-05-14T22:04:28.870Z,48.83
2023-05-14T22:06:56.459Z,48.79
2023-05-14T22:09:23.625Z,48.55
2023-05-14T22:11:50.861Z,48.16
2023-05-14T22:14:17.987Z,48.11
2023-05-14T22:16:45.220Z,48.19
2023-05-14T22:19:15.694Z,47.42
2023-05-14T22:21:42.972Z,48.11
2023-05-14T22:24:10.043Z,47.09
2023-05-14T22:26:37.187Z,47.28
2023-05-14T22:29:04.427Z,46.41
2023-05-14T22:31:31.675Z,46.72
2023-05-14T22:33:58.943Z,47.07
2023-05-14T22:36:27.568Z,46.03
2023-05-14T22:38:54.766Z,49.03
2023-05-14T22:41:22.046Z,47.37
2023-05-14T22:43:49.202Z,47.23
2023-05-14T22:46:16.562Z,46.50
2023-05-14T22:48:43.823Z,45.84
2023-05-14T22:51:11.841Z,43.91
2023-05-14T22:53:40.767Z,44.88
2023-05-14T22:56:08.164Z,43.36
2023-05-14T22:58:35.346Z,44.09
2023-05-14T23:01:02.480Z,41.71
2023-05-14T23:03:29.712Z,42.61
2023-05-14T23:05:57.020Z,43.19
2023-05-14T23:08:24.110Z,42.89
2023-05-14T23:10:52.852Z,42.50
2023-05-14T23:13:20.229Z,42.67
2023-05-14T23:15:47.422Z,42.96
2023-05-14T23:18:14.715Z,43.08
2023-05-14T23:20:42.108Z,43.18
2023-05-14T23:23:09.151Z,43.57
2023-05-14T23:25:36.597Z,43.30
2023-05-14T23:28:05.134Z,43.92
2023-05-14T23:30:32.226Z,43.35
2023-05-14T23:32:59.471Z,42.73
2023-05-14T23:35:26.985Z,43.71
2023-05-14T23:37:54.297Z,43.49
2023-05-14T23:40:21.532Z,43.48
2023-05-14T23:42:48.596Z,43.11
2023-05-14T23:45:17.318Z,43.78
2023-05-14T23:47:44.784Z,43.69
2023-05-14T23:50:12.014Z,43.52
2023-05-14T23:52:39.032Z,44.47
2023-05-14T23:55:07.003Z,43.69
2023-05-14T23:57:34.316Z,44.49
